Time;durP1;ratioP1;P1;durP2;ratioP2;P2;SDS_P1;SDS_P2;PMS_P1;PMS_P2;Temp;Humidity;BMP_temperature;BMP_pressure;BME280_temperature;BME280_humidity;BME280_pressure;Samples;Min_cycle;Max_cycle;Signal;HPM_P1;HPM_P2
2021/08/20 00:02:16;;;;;;;52.28;38.00;;;;;;;;;;5015046;28;20507;-78
2021/08/20 00:04:43;;;;;;;51.42;36.70;;;;;;;;;;5031337;28;20535;-76
2021/08/20 00:07:13;;;;;;;42.72;29.90;;;;;;;;;;5017067;28;20114;-76
2021/08/20 00:09:40;;;;;;;37.58;25.83;;;;;;;;;;5016150;28;20029;-76
2021/08/20 00:12:08;;;;;;;32.55;24.85;;;;;;;;;;5006125;28;20091;-77
2021/08/20 00:14:35;;;;;;;31.67;23.77;;;;;;;;;;5017720;28;20523;-76
2021/08/20 00:17:03;;;;;;;32.10;22.02;;;;;;;;;;5048330;28;20144;-76
2021/08/20 00:19:34;;;;;;;28.92;23.00;;;;;;;;;;5014127;28;20061;-76
2021/08/20 00:22:03;;;;;;;34.33;22.75;;;;;;;;;;5017058;28;20107;-77
2021/08/20 00:24:30;;;;;;;34.60;20.83;;;;;;;;;;5009748;28;20052;-76
2021/08/20 00:27:13;;;;;;;26.60;21.30;;;;;;;;;;4997098;28;20129;-76
2021/08/20 00:29:42;;;;;;;35.72;20.10;;;;;;;;;;5016730;28;20072;-77
2021/08/20 00:32:09;;;;;;;28.65;20.80;;;;;;;;;;5008914;28;20103;-78
2021/08/20 00:34:36;;;;;;;28.42;19.63;;;;;;;;;;5000011;28;20044;-78
2021/08/20 00:37:04;;;;;;;29.13;19.10;;;;;;;;;;5017233;28;20405;-78
2021/08/20 00:39:31;;;;;;;25.27;18.05;;;;;;;;;;5017843;28;20111;-78
2021/08/20 00:41:59;;;;;;;31.00;19.58;;;;;;;;;;4982996;28;20082;-78
2021/08/20 00:44:27;;;;;;;25.60;18.60;;;;;;;;;;5002341;28;20421;-78
2021/08/20 00:46:57;;;;;;;29.25;18.50;;;;;;;;;;5017731;28;20044;-79
2021/08/20 00:49:24;;;;;;;26.00;19.05;;;;;;;;;;5002928;28;21198;-78
2021/08/20 00:51:57;;;;;;;27.95;18.85;;;;;;;;;;5025416;28;20060;-79
2021/08/20 00:54:26;;;;;;;29.90;18.95;;;;;;;;;;4970545;28;20108;-78
2021/08/20 00:56:53;;;;;;;27.75;20.02;;;;;;;;;;4986820;28;20053;-78
2021/08/20 00:59:26;;;;;;;26.50;18.75;;;;;;;;;;5006323;28;20053;-79
2021/08/20 01:01:54;;;;;;;26.83;18.42;;;;;;;;;;5014106;28;20504;-79
2021/08/20 01:04:21;;;;;;;28.83;18.70;;;;;;;;;;4981921;28;20048;-78
2021/08/20 01:06:49;;;;;;;;;;;;;;;;;;5030163;28;20045;-78
2021/08/20 01:09:20;;;;;;;28.60;19.33;;;;;;;;;;5016323;28;19921;-79
2021/08/20 01:11:48;;;;;;;30.38;21.02;;;;;;;;;;5018177;28;20112;-77
2021/08/20 01:14:35;;;;;;;26.98;20.60;;;;;;;;;;5022453;28;20072;-77
2021/08/20 01:17:06;;;;;;;32.72;23.17;;;;;;;;;;5023119;28;20041;-77
2021/08/20 01:19:38;;;;;;;33.05;22.83;;;;;;;;;;5025018;28;20489;-77
2021/08/20 01:22:07;;;;;;;30.73;22.45;;;;;;;;;;5039679;28;20044;-79
2021/08/20 01:24:35;;;;;;;32.55;22.55;;;;;;;;;;4999876;28;20048;-79
2021/08/20 01:27:02;;;;;;;36.30;24.40;;;;;;;;;;5019181;28;20037;-76
2021/08/20 01:29:31;;;;;;;35.83;24.75;;;;;;;;;;5041936;28;20040;-76
2021/08/20 01:31:58;;;;;;;39.58;25.23;;;;;;;;;;5017368;28;20045;-76
2021/08/20 01:34:25;;;;;;;36.15;27.13;;;;;;;;;;5040835;28;20537;-76
2021/08/20 01:36:53;;;;;;;48.67;31.27;;;;;;;;;;5047052;28;20044;-79
2021/08/20 01:39:30;;;;;;;;;;;;;;;;;;5017149;28;20096;-79
2021/08/20 01:42:00;;;;;;;50.88;39.22;;;;;;;;;;5056247;28;20587;-78
2021/08/20 01:44:27;;;;;;;63.28;48.63;;;;;;;;;;5045414;28;20044;-80
2021/08/20 01:46:54;;;;;;;62.95;50.05;;;;;;;;;;5026726;28;20048;-80
2021/08/20 01:49:30;;;;;;;61.50;48.70;;;;;;;;;;5018251;28;20068;-81
2021/08/20 01:51:57;;;;;;;64.43;46.25;;;;;;;;;;5042058;28;20053;-82
2021/08/20 01:54:24;;;;;;;51.45;41.60;;;;;;;;;;5040820;28;20037;-83
2021/08/20 01:56:55;;;;;;;47.42;38.60;;;;;;;;;;5046325;28;20400;-82
2021/08/20 01:59:22;;;;;;;44.63;34.97;;;;;;;;;;5019982;28;20044;-85
2021/08/20 02:01:50;;;;;;;40.00;32.88;;;;;;;;;;5039475;28;20135;-80
2021/08/20 02:04:19;;;;;;;39.53;30.88;;;;;;;;;;5020839;28;20053;-83
2021/08/20 02:06:46;;;;;;;40.40;31.13;;;;;;;;;;5032237;28;20053;-82
2021/08/20 02:09:14;;;;;;;33.17;29.15;;;;;;;;;;5020962;28;20447;-82
2021/08/20 02:11:41;;;;;;;31.98;26.45;;;;;;;;;;5021501;28;20041;-81
2021/08/20 02:14:10;;;;;;;32.72;24.65;;;;;;;;;;5025217;28;20052;-83
2021/08/20 02:16:38;;;;;;;31.33;26.35;;;;;;;;;;5027269;28;20047;-83
2021/08/20 02:19:05;;;;;;;32.35;22.23;;;;;;;;;;5044097;28;20068;-83
2021/08/20 02:21:33;;;;;;;26.38;22.30;;;;;;;;;;5024318;28;20041;-81
2021/08/20 02:24:02;;;;;;;;;;;;;;;;;;5037411;28;20033;-83
2021/08/20 02:26:29;;;;;;;26.42;20.60;;;;;;;;;;5055458;28;19964;-80
2021/08/20 02:28:56;;;;;;;24.27;20.20;;;;;;;;;;5008088;28;20124;-81
2021/08/20 02:31:23;;;;;;;30.85;21.08;;;;;;;;;;5038122;28;20071;-81
2021/08/20 02:33:50;;;;;;;26.42;19.70;;;;;;;;;;5042002;28;20037;-81
2021/08/20 02:36:22;;;;;;;27.88;20.23;;;;;;;;;;5036871;28;20496;-78
2021/08/20 02:38:51;;;;;;;27.45;20.45;;;;;;;;;;5026036;28;20907;-83
2021/08/20 02:41:18;;;;;;;31.50;18.95;;;;;;;;;;5019623;28;20044;-80
2021/08/20 02:43:45;;;;;;;28.30;19.83;;;;;;;;;;5021719;28;20046;-81
2021/08/20 02:46:13;;;;;;;26.90;19.13;;;;;;;;;;5036118;28;20041;-79
2021/08/20 02:48:40;;;;;;;25.90;19.10;;;;;;;;;;5018707;28;20108;-80
2021/08/20 02:51:09;;;;;;;23.83;18.05;;;;;;;;;;5038304;28;20049;-82
2021/08/20 02:53:40;;;;;;;22.30;18.10;;;;;;;;;;5038010;28;20037;-79
2021/08/20 02:56:08;;;;;;;25.70;19.00;;;;;;;;;;5028037;28;20123;-82
2021/08/20 02:58:35;;;;;;;25.05;18.98;;;;;;;;;;5027821;28;20589;-82
2021/08/20 03:01:03;;;;;;;26.88;19.85;;;;;;;;;;5018038;28;20052;-82
2021/08/20 03:03:30;;;;;;;24.30;17.70;;;;;;;;;;5002587;28;20049;-81
2021/08/20 03:05:58;;;;;;;26.65;17.05;;;;;;;;;;5035766;28;20058;-83
2021/08/20 03:08:28;;;;;;;23.92;18.52;;;;;;;;;;5034846;28;20049;-83
2021/08/20 03:10:56;;;;;;;26.95;17.52;;;;;;;;;;5002402;28;20103;-82
2021/08/20 03:13:23;;;;;;;25.88;18.35;;;;;;;;;;5020037;28;20045;-82
2021/08/20 03:15:50;;;;;;;28.17;18.17;;;;;;;;;;5021960;28;20034;-81
2021/08/20 03:18:17;;;;;;;26.30;17.60;;;;;;;;;;5019093;28;20125;-81
2021/08/20 03:20:45;;;;;;;31.85;18.58;;;;;;;;;;5042085;28;20073;-81
2021/08/20 03:23:38;;;;;;;25.70;17.88;;;;;;;;;;5040491;27;20421;-83
2021/08/20 03:26:22;;;;;;;22.30;17.00;;;;;;;;;;5110126;27;20352;-82
2021/08/20 03:29:08;;;;;;;23.08;17.67;;;;;;;;;;5102941;27;20935;-80
2021/08/20 03:31:48;;;;;;;27.20;17.55;;;;;;;;;;5062024;27;20442;-81
2021/08/20 03:34:28;;;;;;;27.55;18.98;;;;;;;;;;5078428;27;20417;-81
2021/08/20 03:37:09;;;;;;;31.98;19.58;;;;;;;;;;5060086;27;20431;-80
2021/08/20 03:39:49;;;;;;;25.38;20.65;;;;;;;;;;5071161;27;20799;-81
2021/08/20 03:42:30;;;;;;;44.22;34.78;;;;;;;;;;5051257;27;20441;-82
2021/08/20 03:45:11;;;;;;;62.17;55.15;;;;;;;;;;5047367;27;20440;-82
2021/08/20 03:47:55;;;;;;;73.28;61.22;;;;;;;;;;5111164;27;20767;-84
2021/08/20 03:50:41;;;;;;;75.72;67.13;;;;;;;;;;5056351;27;20403;-84
2021/08/20 03:53:21;;;;;;;90.70;73.82;;;;;;;;;;4978626;27;4263979;-80
2021/08/20 03:56:03;;;;;;;51.55;38.17;;;;;;;;;;4980024;27;3996268;-81
2021/08/20 03:58:45;;;;;;;49.78;39.28;;;;;;;;;;5100779;27;20536;-81
2021/08/20 04:01:26;;;;;;;61.08;41.80;;;;;;;;;;5078868;27;20426;-81
2021/08/20 04:04:07;;;;;;;83.18;59.97;;;;;;;;;;5039935;27;20414;-81
2021/08/20 04:06:43;;;;;;;69.55;46.00;;;;;;;;;;4913451;27;5259301;-82
2021/08/20 04:09:26;;;;;;;57.00;39.25;;;;;;;;;;5079007;27;20130;-82
2021/08/20 04:12:03;;;;;;;54.67;38.13;;;;;;;;;;4991389;27;4172583;-83
2021/08/20 04:14:43;;;;;;;57.50;41.58;;;;;;;;;;5095172;27;20362;-82
2021/08/20 04:17:25;;;;;;;44.45;31.92;;;;;;;;;;5061236;27;20398;-81
2021/08/20 04:20:08;;;;;;;60.72;41.92;;;;;;;;;;5117281;27;20185;-79
2021/08/20 04:22:53;;;;;;;41.78;27.35;;;;;;;;;;5083884;27;20126;-80
2021/08/20 04:25:36;;;;;;;39.38;27.95;;;;;;;;;;5026910;27;20496;-81
2021/08/20 04:28:19;;;;;;;32.25;22.02;;;;;;;;;;5096595;27;20170;-81
2021/08/20 04:30:59;;;;;;;33.95;24.67;;;;;;;;;;5053037;27;20505;-81
2021/08/20 04:33:42;;;;;;;34.90;23.60;;;;;;;;;;5084200;27;20128;-82
2021/08/20 04:36:23;;;;;;;36.95;27.02;;;;;;;;;;5058722;27;20422;-81
2021/08/20 04:39:04;;;;;;;37.92;29.42;;;;;;;;;;5055153;27;20487;-81
2021/08/20 04:41:47;;;;;;;36.67;23.02;;;;;;;;;;5067582;27;20467;-83
2021/08/20 04:44:32;;;;;;;26.85;20.80;;;;;;;;;;5040342;27;20423;-82
2021/08/20 04:47:15;;;;;;;36.28;24.17;;;;;;;;;;5117918;27;20469;-82
2021/08/20 04:49:58;;;;;;;35.03;26.45;;;;;;;;;;5095841;27;20440;-83
2021/08/20 04:52:40;;;;;;;41.80;29.60;;;;;;;;;;5059656;27;20443;-83
2021/08/20 04:55:21;;;;;;;35.78;26.98;;;;;;;;;;4909448;27;4596950;-82
2021/08/20 04:58:01;;;;;;;33.90;25.10;;;;;;;;;;5065253;27;20416;-83
2021/08/20 05:00:57;;;;;;;31.98;21.20;;;;;;;;;;5078707;27;20926;-80
2021/08/20 05:03:50;;;;;;;31.50;20.90;;;;;;;;;;5058736;27;20412;-82
2021/08/20 05:06:44;;;;;;;33.47;22.17;;;;;;;;;;5042498;27;20425;-81
2021/08/20 05:09:48;;;;;;;26.25;20.75;;;;;;;;;;5100599;27;20767;-80
2021/08/20 05:12:44;;;;;;;22.55;14.70;;;;;;;;;;5161710;27;20532;-82
2021/08/20 05:15:37;;;;;;;23.20;15.65;;;;;;;;;;5061821;27;20418;-81
2021/08/20 05:18:37;;;;;;;25.92;17.40;;;;;;;;;;5104841;28;20437;-81
2021/08/20 05:21:40;;;;;;;22.52;16.85;;;;;;;;;;5076746;28;20132;-81
2021/08/20 05:24:54;;;;;;;23.55;16.63;;;;;;;;;;5050864;27;20512;-80
2021/08/20 05:27:49;;;;;;;23.08;16.08;;;;;;;;;;5053300;27;20805;-83
2021/08/20 05:30:33;;;;;;;22.90;15.15;;;;;;;;;;5050104;27;20832;-81
2021/08/20 05:33:13;;;;;;;19.55;16.35;;;;;;;;;;5128924;27;20418;-79
2021/08/20 05:35:53;;;;;;;30.85;17.17;;;;;;;;;;5078848;27;20440;-81
2021/08/20 05:38:34;;;;;;;22.27;16.85;;;;;;;;;;5058790;27;20421;-82
2021/08/20 05:41:14;;;;;;;22.13;16.40;;;;;;;;;;5066617;27;20444;-81
2021/08/20 05:43:56;;;;;;;22.58;16.08;;;;;;;;;;5047062;27;20414;-80
2021/08/20 05:46:37;;;;;;;23.55;16.90;;;;;;;;;;5079050;27;20422;-81
2021/08/20 05:49:19;;;;;;;24.60;17.00;;;;;;;;;;5076118;27;20434;-81
2021/08/20 05:52:01;;;;;;;21.65;15.93;;;;;;;;;;5119457;27;20919;-80
2021/08/20 05:54:42;;;;;;;21.38;16.17;;;;;;;;;;5059992;27;20184;-82
2021/08/20 05:57:24;;;;;;;26.77;17.48;;;;;;;;;;5005754;28;20788;-82
2021/08/20 06:00:07;;;;;;;22.95;17.35;;;;;;;;;;5086555;27;20783;-81
2021/08/20 06:02:49;;;;;;;21.33;16.13;;;;;;;;;;5131152;27;20439;-83
2021/08/20 06:05:34;;;;;;;24.23;16.80;;;;;;;;;;5038906;27;20414;-82
2021/08/20 06:08:17;;;;;;;25.88;16.58;;;;;;;;;;5071954;27;20899;-81
2021/08/20 06:10:47;;;;;;;26.10;16.92;;;;;;;;;;5047737;28;20054;-79
2021/08/20 06:13:29;;;;;;;23.15;16.42;;;;;;;;;;5042349;27;20430;-81
2021/08/20 06:16:11;;;;;;;28.30;17.67;;;;;;;;;;5103204;27;21109;-82
2021/08/20 06:18:54;;;;;;;24.13;17.20;;;;;;;;;;5061705;27;20405;-77
2021/08/20 06:21:37;;;;;;;23.35;17.73;;;;;;;;;;4972097;27;3651556;-81
2021/08/20 06:24:19;;;;;;;23.63;18.85;;;;;;;;;;5032943;27;20127;-81
2021/08/20 06:27:02;;;;;;;27.45;17.63;;;;;;;;;;5106411;27;20372;-80
2021/08/20 06:29:47;;;;;;;23.23;16.23;;;;;;;;;;5025600;27;20433;-82
2021/08/20 06:32:36;;;;;;;26.00;16.73;;;;;;;;;;5072835;27;20475;-78
2021/08/20 06:35:17;;;;;;;18.05;15.80;;;;;;;;;;5004487;28;20902;-81
2021/08/20 06:38:01;;;;;;;24.67;17.17;;;;;;;;;;5088174;27;20420;-82
2021/08/20 06:40:42;;;;;;;25.75;16.60;;;;;;;;;;5099891;27;20128;-81
2021/08/20 06:43:20;;;;;;;22.63;17.75;;;;;;;;;;5027802;27;2936892;-81
2021/08/20 06:46:02;;;;;;;22.40;16.38;;;;;;;;;;5062650;27;20373;-78
2021/08/20 06:48:48;;;;;;;21.00;16.60;;;;;;;;;;5019741;27;2873168;-82
2021/08/20 06:51:28;;;;;;;24.23;16.98;;;;;;;;;;5049818;27;20812;-81
2021/08/20 06:54:11;;;;;;;22.67;16.27;;;;;;;;;;5103276;27;20464;-79
2021/08/20 06:56:52;;;;;;;19.45;16.67;;;;;;;;;;5076820;27;20796;-81
2021/08/20 06:59:29;;;;;;;21.77;16.33;;;;;;;;;;5018509;27;3287829;-82
2021/08/20 07:02:15;;;;;;;25.13;16.90;;;;;;;;;;5096725;27;20185;-82
2021/08/20 07:04:58;;;;;;;22.90;17.05;;;;;;;;;;5036319;27;20426;-82
2021/08/20 07:07:39;;;;;;;20.88;16.75;;;;;;;;;;5056270;28;20417;-81
2021/08/20 07:10:19;;;;;;;28.25;18.38;;;;;;;;;;5059395;27;20415;-80
2021/08/20 07:13:00;;;;;;;25.88;16.95;;;;;;;;;;5059528;27;20906;-81
2021/08/20 07:15:43;;;;;;;26.58;18.27;;;;;;;;;;5058274;27;20417;-81
2021/08/20 07:18:25;;;;;;;24.63;17.63;;;;;;;;;;5123930;27;20438;-82
2021/08/20 07:21:19;;;;;;;27.00;17.30;;;;;;;;;;5053475;27;20416;-78
2021/08/20 07:23:55;;;;;;;23.73;18.08;;;;;;;;;;5009207;27;3063584;-78
2021/08/20 07:26:33;;;;;;;23.25;17.35;;;;;;;;;;4957059;27;4017673;-81
2021/08/20 07:29:14;;;;;;;29.38;18.70;;;;;;;;;;5113166;27;20955;-82
2021/08/20 07:32:00;;;;;;;25.15;19.10;;;;;;;;;;5136589;27;20418;-78
2021/08/20 07:34:43;;;;;;;23.45;18.23;;;;;;;;;;5058872;27;20402;-81
2021/08/20 07:37:26;;;;;;;37.13;18.30;;;;;;;;;;5009800;27;20430;-79
2021/08/20 07:40:18;;;;;;;30.40;19.15;;;;;;;;;;5035701;27;20799;-81
2021/08/20 07:43:00;;;;;;;27.00;18.65;;;;;;;;;;5060408;27;20787;-82
2021/08/20 07:45:40;;;;;;;28.40;20.30;;;;;;;;;;5077910;27;20437;-82
2021/08/20 07:48:23;;;;;;;27.45;21.42;;;;;;;;;;5120060;27;20407;-81
2021/08/20 07:51:08;;;;;;;29.75;20.13;;;;;;;;;;5110562;27;20339;-81
2021/08/20 07:53:49;;;;;;;26.13;20.17;;;;;;;;;;5058733;27;20491;-82
2021/08/20 07:56:32;;;;;;;33.15;23.17;;;;;;;;;;5075538;27;20460;-78
2021/08/20 07:59:13;;;;;;;27.48;19.98;;;;;;;;;;5109286;27;20452;-82
2021/08/20 08:01:55;;;;;;;24.95;19.48;;;;;;;;;;5056846;27;20940;-81
2021/08/20 08:04:58;;;;;;;23.38;19.92;;;;;;;;;;5113141;27;20204;-82
2021/08/20 08:07:37;;;;;;;30.13;20.08;;;;;;;;;;4461209;27;18742032;-83
2021/08/20 08:11:14;;;;;;;26.88;19.60;;;;;;;;;;5104296;27;20410;-83
2021/08/20 08:14:13;;;;;;;26.77;21.17;;;;;;;;;;5056434;27;20423;-82
2021/08/20 08:16:41;;;;;;;25.58;21.27;;;;;;;;;;5065045;28;20040;-81
2021/08/20 08:19:38;;;;;;;30.95;22.25;;;;;;;;;;5078049;27;20506;-82
2021/08/20 08:22:33;;;;;;;30.02;22.05;;;;;;;;;;5159937;27;20418;-82
2021/08/20 08:25:28;;;;;;;29.20;22.65;;;;;;;;;;5070290;27;20419;-83
2021/08/20 08:28:32;;;;;;;34.28;26.02;;;;;;;;;;5077405;27;21171;-83
2021/08/20 08:31:31;;;;;;;29.58;24.20;;;;;;;;;;5091092;27;20220;-80
2021/08/20 08:34:11;;;;;;;31.35;25.08;;;;;;;;;;4578108;27;15265554;-84
2021/08/20 08:37:10;;;;;;;32.78;24.90;;;;;;;;;;5117662;27;20604;-81
2021/08/20 08:40:11;;;;;;;33.03;27.80;;;;;;;;;;5135309;27;20798;-82
2021/08/20 08:43:10;;;;;;;31.70;24.45;;;;;;;;;;5057462;27;20226;-83
2021/08/20 08:46:08;;;;;;;28.27;24.50;;;;;;;;;;5038447;27;20416;-82
2021/08/20 08:48:50;;;;;;;33.47;23.48;;;;;;;;;;5160269;27;20427;-78
2021/08/20 08:51:31;;;;;;;30.23;26.15;;;;;;;;;;5057835;28;20404;-81
2021/08/20 08:54:14;;;;;;;28.70;25.20;;;;;;;;;;5064525;27;20421;-83
2021/08/20 08:56:54;;;;;;;31.05;25.50;;;;;;;;;;5080353;27;20932;-81
2021/08/20 08:59:35;;;;;;;32.70;24.35;;;;;;;;;;5059209;27;20437;-81
2021/08/20 09:02:23;;;;;;;34.58;25.67;;;;;;;;;;5118676;27;20398;-81
2021/08/20 09:05:10;;;;;;;34.90;23.52;;;;;;;;;;5111999;27;20406;-81
2021/08/20 09:07:57;;;;;;;33.83;24.40;;;;;;;;;;5124919;27;19932;-81
2021/08/20 09:10:35;;;;;;;34.35;26.05;;;;;;;;;;4978747;27;4054680;-83
2021/08/20 09:13:30;;;;;;;35.45;25.63;;;;;;;;;;5098356;27;20298;-82
2021/08/20 09:16:13;;;;;;;33.87;25.70;;;;;;;;;;4914004;27;6644067;-81
2021/08/20 09:19:12;;;;;;;30.92;24.48;;;;;;;;;;4994900;27;4080889;-82
2021/08/20 09:21:57;;;;;;;33.33;27.83;;;;;;;;;;5049557;27;20402;-81
2021/08/20 09:24:42;;;;;;;33.15;25.70;;;;;;;;;;4958882;27;3909442;-82
2021/08/20 09:27:29;;;;;;;31.83;25.50;;;;;;;;;;5109422;27;20858;-78
2021/08/20 09:30:20;;;;;;;31.63;25.10;;;;;;;;;;5117581;27;19930;-76
2021/08/20 09:32:58;;;;;;;32.05;25.70;;;;;;;;;;4967473;27;3285242;-76
2021/08/20 09:35:37;;;;;;;31.55;25.55;;;;;;;;;;4948331;27;3979630;-79
2021/08/20 09:38:24;;;;;;;31.33;24.35;;;;;;;;;;5099233;27;20155;-83
2021/08/20 09:41:10;;;;;;;35.22;26.70;;;;;;;;;;5077509;27;20419;-84
2021/08/20 09:44:04;;;;;;;34.53;25.10;;;;;;;;;;5068826;27;20753;-83
2021/08/20 09:46:47;;;;;;;34.58;26.20;;;;;;;;;;5121603;27;20593;-80
2021/08/20 09:49:27;;;;;;;38.33;24.75;;;;;;;;;;5047964;27;20435;-80
2021/08/20 09:52:26;;;;;;;31.88;26.02;;;;;;;;;;5013366;28;20426;-79
2021/08/20 09:55:06;;;;;;;33.03;24.60;;;;;;;;;;5004358;27;3293156;-77
2021/08/20 09:57:47;;;;;;;35.55;26.25;;;;;;;;;;5028986;27;20427;-75
2021/08/20 10:00:32;;;;;;;35.97;25.70;;;;;;;;;;4998808;28;20437;-76
2021/08/20 10:03:17;;;;;;;34.70;25.48;;;;;;;;;;5063475;27;20951;-76
2021/08/20 10:06:01;;;;;;;36.35;23.60;;;;;;;;;;5059328;27;20431;-75
2021/08/20 10:08:48;;;;;;;28.58;24.60;;;;;;;;;;5060411;28;20411;-75
2021/08/20 10:11:29;;;;;;;29.80;23.45;;;;;;;;;;5120940;27;20135;-76
2021/08/20 10:14:11;;;;;;;33.78;23.35;;;;;;;;;;5062822;27;20938;-76
2021/08/20 10:16:40;;;;;;;35.00;23.77;;;;;;;;;;5079708;28;20064;-76
2021/08/20 10:19:09;;;;;;;34.20;23.90;;;;;;;;;;5080883;28;20047;-76
2021/08/20 10:21:38;;;;;;;31.75;22.83;;;;;;;;;;5081342;28;20551;-76
2021/08/20 10:24:08;;;;;;;33.33;23.35;;;;;;;;;;5081271;28;20086;-75
2021/08/20 10:26:41;;;;;;;35.42;22.95;;;;;;;;;;5079319;28;20036;-75
2021/08/20 10:29:12;;;;;;;32.63;22.58;;;;;;;;;;5078880;28;20033;-75
2021/08/20 10:31:48;;;;;;;33.70;19.63;;;;;;;;;;5080581;28;20040;-75
2021/08/20 10:34:40;;;;;;;29.85;20.17;;;;;;;;;;5034835;28;20141;-76
2021/08/20 10:37:27;;;;;;;32.78;20.08;;;;;;;;;;5051907;28;20053;-76
2021/08/20 10:39:56;;;;;;;31.25;18.58;;;;;;;;;;5048491;28;20545;-79
2021/08/20 10:42:43;;;;;;;29.23;17.70;;;;;;;;;;5040172;28;20041;-77
2021/08/20 10:45:43;;;;;;;31.70;18.55;;;;;;;;;;5035388;27;20416;-76
2021/08/20 10:48:25;;;;;;;26.25;15.65;;;;;;;;;;5118172;27;20536;-77
2021/08/20 10:51:06;;;;;;;21.05;14.00;;;;;;;;;;5081131;27;20137;-78
2021/08/20 10:53:51;;;;;;;23.52;12.55;;;;;;;;;;5022330;27;3272542;-75
2021/08/20 10:58:41;;;;;;;20.63;11.40;;;;;;;;;;5093844;27;20154;-79
2021/08/20 11:01:34;;;;;;;18.98;10.75;;;;;;;;;;4945115;27;20179;-81
2021/08/20 11:04:53;;;;;;;16.60;10.65;;;;;;;;;;5024424;28;20424;-79
2021/08/20 11:07:44;;;;;;;15.40;9.70;;;;;;;;;;5102806;27;20367;-80
2021/08/20 11:10:29;;;;;;;17.05;10.73;;;;;;;;;;5122685;27;20403;-76
2021/08/20 11:13:11;;;;;;;15.05;9.38;;;;;;;;;;5066173;27;20660;-75
2021/08/20 11:15:53;;;;;;;17.77;9.48;;;;;;;;;;5059363;27;20450;-76
2021/08/20 11:18:42;;;;;;;14.00;9.05;;;;;;;;;;5140286;27;20172;-76
2021/08/20 11:21:47;;;;;;;14.57;7.97;;;;;;;;;;5059090;27;20431;-77
2021/08/20 11:24:27;;;;;;;16.42;8.63;;;;;;;;;;5080701;27;20422;-76
2021/08/20 11:27:15;;;;;;;15.13;8.38;;;;;;;;;;5120333;27;20132;-75
2021/08/20 11:29:58;;;;;;;12.35;8.52;;;;;;;;;;5052391;27;20389;-78
2021/08/20 11:32:35;;;;;;;12.02;8.02;;;;;;;;;;5020581;28;20052;-78
2021/08/20 11:35:04;;;;;;;12.25;8.30;;;;;;;;;;5028125;28;20037;-76
2021/08/20 11:37:32;;;;;;;12.30;7.38;;;;;;;;;;5017776;28;20053;-78
2021/08/20 11:40:04;;;;;;;;;;;;;;;;;;5007784;28;21774;-77
2021/08/20 11:42:33;;;;;;;12.52;7.38;;;;;;;;;;5033538;28;19920;-77
2021/08/20 11:45:23;;;;;;;13.73;8.82;;;;;;;;;;5003294;28;20491;-78
2021/08/20 11:47:58;;;;;;;12.93;7.97;;;;;;;;;;5030673;28;20144;-77
2021/08/20 11:50:27;;;;;;;12.68;7.43;;;;;;;;;;5011853;28;20079;-77
2021/08/20 11:52:55;;;;;;;15.35;7.75;;;;;;;;;;5002360;28;20073;-78
2021/08/20 11:55:22;;;;;;;10.85;7.57;;;;;;;;;;5037244;28;20045;-78
2021/08/20 11:57:49;;;;;;;13.80;8.13;;;;;;;;;;5014926;28;20059;-78
2021/08/20 12:00:20;;;;;;;15.70;8.63;;;;;;;;;;5028172;28;20045;-77
2021/08/20 12:02:48;;;;;;;11.13;7.70;;;;;;;;;;5016177;28;20068;-86
2021/08/20 12:05:19;;;;;;;11.32;8.15;;;;;;;;;;5000721;28;20788;-88
2021/08/20 12:07:48;;;;;;;10.50;6.53;;;;;;;;;;5023479;28;20106;-86
2021/08/20 12:10:18;;;;;;;;;;;;;;;;;;5009066;28;20041;-86
2021/08/20 12:12:46;;;;;;;11.75;7.82;;;;;;;;;;5026532;28;20445;-84
2021/08/20 12:15:16;;;;;;;11.80;7.65;;;;;;;;;;5027713;28;20053;-81
2021/08/20 12:17:46;;;;;;;15.45;7.20;;;;;;;;;;5045279;28;20057;-84
2021/08/20 12:20:20;;;;;;;10.75;7.45;;;;;;;;;;5026702;28;20589;-85
2021/08/20 12:23:06;;;;;;;11.80;7.28;;;;;;;;;;5025358;28;20041;-83
2021/08/20 12:25:39;;;;;;;10.82;7.20;;;;;;;;;;5001365;28;20069;-86
2021/08/20 12:28:18;;;;;;;12.88;7.32;;;;;;;;;;5024653;28;20041;-84
2021/08/20 12:30:47;;;;;;;10.07;7.13;;;;;;;;;;5011667;28;21872;-86
2021/08/20 12:33:16;;;;;;;10.25;6.65;;;;;;;;;;5034281;28;20052;-84
2021/08/20 12:35:52;;;;;;;9.63;6.40;;;;;;;;;;5020310;28;20072;-80
2021/08/20 12:38:21;;;;;;;11.90;7.50;;;;;;;;;;5016630;28;22197;-86
2021/08/20 12:40:56;;;;;;;10.52;7.20;;;;;;;;;;5020555;28;20499;-83
2021/08/20 12:43:28;;;;;;;9.98;6.35;;;;;;;;;;5001449;28;20055;-81
2021/08/20 12:46:14;;;;;;;9.35;6.05;;;;;;;;;;5009462;28;20073;-83
2021/08/20 12:48:59;;;;;;;14.02;5.65;;;;;;;;;;5002217;28;20056;-83
2021/08/20 12:51:26;;;;;;;10.30;6.10;;;;;;;;;;5001593;28;20049;-84
2021/08/20 12:54:05;;;;;;;11.65;6.10;;;;;;;;;;5019586;28;20231;-81
2021/08/20 12:56:35;;;;;;;9.93;5.85;;;;;;;;;;5001371;28;20069;-85
2021/08/20 12:59:05;;;;;;;10.73;5.75;;;;;;;;;;5033712;28;20046;-85
2021/08/20 13:01:38;;;;;;;14.82;7.25;;;;;;;;;;5004490;28;20701;-82
2021/08/20 13:04:07;;;;;;;10.07;7.25;;;;;;;;;;5009622;28;20485;-86
2021/08/20 13:06:55;;;;;;;12.38;7.10;;;;;;;;;;5000775;28;20061;-86
2021/08/20 13:09:22;;;;;;;9.82;6.63;;;;;;;;;;4992880;28;20465;-82
2021/08/20 13:11:49;;;;;;;12.05;7.05;;;;;;;;;;5005186;28;20084;-86
2021/08/20 13:14:16;;;;;;;14.07;7.57;;;;;;;;;;5028081;28;20121;-84
2021/08/20 13:16:43;;;;;;;12.98;7.32;;;;;;;;;;5001115;28;20049;-84
2021/08/20 13:19:15;;;;;;;15.25;7.45;;;;;;;;;;5017278;28;20920;-84
2021/08/20 13:21:42;;;;;;;13.85;7.68;;;;;;;;;;4987775;28;20074;-85
2021/08/20 13:24:09;;;;;;;12.50;7.18;;;;;;;;;;5014366;28;20056;-85
2021/08/20 13:26:37;;;;;;;12.10;7.20;;;;;;;;;;5004017;28;20056;-85
2021/08/20 13:29:06;;;;;;;11.43;7.70;;;;;;;;;;4997591;28;20057;-84
2021/08/20 13:31:33;;;;;;;12.50;8.02;;;;;;;;;;5021373;28;20036;-86
2021/08/20 13:34:00;;;;;;;13.63;8.82;;;;;;;;;;4988816;28;20384;-82
2021/08/20 13:36:27;;;;;;;14.32;7.93;;;;;;;;;;5005347;28;20044;-84
2021/08/20 13:38:54;;;;;;;12.93;7.68;;;;;;;;;;5008874;28;20450;-79
2021/08/20 13:41:22;;;;;;;12.77;7.63;;;;;;;;;;4998080;28;20465;-84
2021/08/20 13:43:49;;;;;;;11.20;6.93;;;;;;;;;;5014312;28;20046;-86
2021/08/20 13:46:16;;;;;;;11.43;6.63;;;;;;;;;;5024875;28;20559;-85
2021/08/20 13:48:48;;;;;;;14.50;7.63;;;;;;;;;;5022196;28;20173;-86
2021/08/20 13:51:15;;;;;;;11.85;6.95;;;;;;;;;;4998327;28;20072;-88
2021/08/20 13:53:43;;;;;;;11.07;6.55;;;;;;;;;;4984015;28;20063;-87
2021/08/20 13:56:14;;;;;;;11.52;7.22;;;;;;;;;;4999252;28;20038;-86
2021/08/20 13:58:41;;;;;;;13.85;7.47;;;;;;;;;;4970162;28;20033;-86
2021/08/20 14:01:15;;;;;;;11.55;7.47;;;;;;;;;;5000460;28;20095;-84
2021/08/20 14:03:42;;;;;;;13.00;7.95;;;;;;;;;;4996851;28;20811;-86
2021/08/20 14:06:10;;;;;;;13.82;7.28;;;;;;;;;;5003349;28;20190;-85
2021/08/20 14:08:37;;;;;;;10.90;7.30;;;;;;;;;;4983486;28;20059;-86
2021/08/20 14:11:05;;;;;;;9.88;6.47;;;;;;;;;;4978901;28;20053;-85
2021/08/20 14:13:34;;;;;;;11.35;7.15;;;;;;;;;;4995860;28;20061;-84
2021/08/20 14:16:02;;;;;;;11.32;7.00;;;;;;;;;;4993229;28;20052;-83
2021/08/20 14:18:31;;;;;;;15.80;7.97;;;;;;;;;;4980583;28;20046;-82
2021/08/20 14:20:58;;;;;;;10.93;7.25;;;;;;;;;;4990981;28;22969;-85
2021/08/20 14:23:25;;;;;;;14.05;6.93;;;;;;;;;;4997709;28;20053;-86
2021/08/20 14:25:54;;;;;;;13.70;7.38;;;;;;;;;;4994674;28;20045;-86
2021/08/20 14:28:21;;;;;;;11.55;7.43;;;;;;;;;;4994727;28;20037;-86
2021/08/20 14:30:48;;;;;;;10.30;7.45;;;;;;;;;;4988126;28;22103;-83
2021/08/20 14:33:21;;;;;;;12.77;7.93;;;;;;;;;;4994031;28;20486;-81
2021/08/20 14:35:48;;;;;;;16.85;7.97;;;;;;;;;;4996306;28;20041;-80
2021/08/20 14:38:19;;;;;;;11.50;7.75;;;;;;;;;;5003440;28;20045;-85
2021/08/20 14:40:46;;;;;;;15.50;7.53;;;;;;;;;;4994201;28;20059;-86
2021/08/20 14:43:13;;;;;;;15.68;7.57;;;;;;;;;;5013896;28;20120;-85
2021/08/20 14:45:40;;;;;;;13.75;8.02;;;;;;;;;;4999302;28;20044;-79
2021/08/20 14:48:09;;;;;;;10.50;7.05;;;;;;;;;;5013120;28;20040;-87
2021/08/20 14:50:36;;;;;;;12.75;7.28;;;;;;;;;;5029927;28;20041;-87
2021/08/20 14:53:05;;;;;;;9.45;6.95;;;;;;;;;;4995903;28;20124;-83
2021/08/20 14:55:35;;;;;;;13.68;7.28;;;;;;;;;;5008661;28;20415;-83
2021/08/20 14:58:06;;;;;;;11.32;6.65;;;;;;;;;;5012995;28;20132;-85
2021/08/20 15:00:34;;;;;;;11.02;6.00;;;;;;;;;;5015617;28;20049;-85
2021/08/20 15:03:01;;;;;;;;;;;;;;;;;;5014586;28;20091;-85
2021/08/20 15:05:30;;;;;;;9.23;5.75;;;;;;;;;;4992977;28;19925;-83
2021/08/20 15:07:59;;;;;;;12.07;6.30;;;;;;;;;;5041205;28;20040;-86
2021/08/20 15:10:26;;;;;;;10.98;6.57;;;;;;;;;;5043216;28;20059;-83
2021/08/20 15:12:56;;;;;;;11.93;6.07;;;;;;;;;;5014832;28;20119;-83
2021/08/20 15:15:23;;;;;;;11.60;5.93;;;;;;;;;;5014751;28;20080;-84
2021/08/20 15:17:50;;;;;;;13.55;5.32;;;;;;;;;;5011676;28;20034;-81
2021/08/20 15:20:18;;;;;;;7.40;4.85;;;;;;;;;;5022743;28;20446;-83
2021/08/20 15:22:48;;;;;;;8.50;4.20;;;;;;;;;;5005702;28;20061;-83